sensor_id;sensor_type;location;lat;lon;timestamp;temperature;humidity
19359;DHT22;9815;52.334;20.890;2022-07-06T00:00:11;16.10;99.90
19359;DHT22;9815;52.334;20.890;2022-07-06T00:02:39;16.20;99.90
19359;DHT22;9815;52.334;20.890;2022-07-06T00:05:09;16.10;99.90
19359;DHT22;9815;52.334;20.890;2022-07-06T00:07:37;16.10;99.90
19359;DHT22;9815;52.334;20.890;2022-07-06T00:10:06;16.10;99.90
19359;DHT22;9815;52.334;20.890;2022-07-06T00:12:35;16.10;99.90
19359;DHT22;9815;52.334;20.890;2022-07-06T00:15:04;16.10;99.90
19359;DHT22;9815;52.334;20.890;2022-07-06T00:17:32;16.10;99.90
19359;DHT22;9815;52.334;20.890;2022-07-06T00:20:01;16.10;99.90
19359;DHT22;9815;52.334;20.890;2022-07-06T00:22:30;16.10;99.90
19359;DHT22;9815;52.334;20.890;2022-07-06T00:24:58;16.10;99.90
19359;DHT22;9815;52.334;20.890;2022-07-06T00:27:27;16.10;99.90
19359;DHT22;9815;52.334;20.890;2022-07-06T00:29:55;16.20;99.90
19359;DHT22;9815;52.334;20.890;2022-07-06T00:32:23;16.20;99.90
19359;DHT22;9815;52.334;20.890;2022-07-06T00:34:52;16.20;99.90
19359;DHT22;9815;52.334;20.890;2022-07-06T00:37:22;16.20;99.90
19359;DHT22;9815;52.334;20.890;2022-07-06T00:39:51;16.20;99.90
19359;DHT22;9815;52.334;20.890;2022-07-06T00:42:19;16.20;99.90
19359;DHT22;9815;52.334;20.890;2022-07-06T00:44:48;16.20;99.90
19359;DHT22;9815;52.334;20.890;2022-07-06T00:47:16;16.20;99.90
19359;DHT22;9815;52.334;20.890;2022-07-06T00:49:44;16.20;99.90
19359;DHT22;9815;52.334;20.890;2022-07-06T00:52:30;16.20;99.90
19359;DHT22;9815;52.334;20.890;2022-07-06T00:55:00;16.30;99.90
19359;DHT22;9815;52.334;20.890;2022-07-06T00:57:29;16.30;99.90
19359;DHT22;9815;52.334;20.890;2022-07-06T00:59:57;16.30;99.90
19359;DHT22;9815;52.334;20.890;2022-07-06T01:02:26;16.30;99.90
19359;DHT22;9815;52.334;20.890;2022-07-06T01:04:55;16.30;99.90
19359;DHT22;9815;52.334;20.890;2022-07-06T01:07:23;16.30;99.90
19359;DHT22;9815;52.334;20.890;2022-07-06T01:09:51;16.30;99.90
19359;DHT22;9815;52.334;20.890;2022-07-06T01:12:21;16.30;99.90
19359;DHT22;9815;52.334;20.890;2022-07-06T01:14:50;16.30;99.90
19359;DHT22;9815;52.334;20.890;2022-07-06T01:17:19;16.30;99.90
19359;DHT22;9815;52.334;20.890;2022-07-06T01:19:47;16.40;99.90
19359;DHT22;9815;52.334;20.890;2022-07-06T01:22:17;16.40;99.90
19359;DHT22;9815;52.334;20.890;2022-07-06T01:24:45;16.40;99.90
19359;DHT22;9815;52.334;20.890;2022-07-06T01:27:14;16.30;99.90
19359;DHT22;9815;52.334;20.890;2022-07-06T01:29:42;16.30;99.90
19359;DHT22;9815;52.334;20.890;2022-07-06T01:32:10;16.20;99.90
19359;DHT22;9815;52.334;20.890;2022-07-06T01:34:40;16.20;99.90
19359;DHT22;9815;52.334;20.890;2022-07-06T01:37:09;16.20;99.90
19359;DHT22;9815;52.334;20.890;2022-07-06T01:39:38;16.20;99.90
19359;DHT22;9815;52.334;20.890;2022-07-06T01:42:07;16.20;99.90
19359;DHT22;9815;52.334;20.890;2022-07-06T01:44:35;16.20;99.90
19359;DHT22;9815;52.334;20.890;2022-07-06T01:47:03;16.20;99.90
19359;DHT22;9815;52.334;20.890;2022-07-06T01:49:31;16.20;99.90
19359;DHT22;9815;52.334;20.890;2022-07-06T01:51:59;16.20;99.90
19359;DHT22;9815;52.334;20.890;2022-07-06T01:54:28;16.20;99.90
19359;DHT22;9815;52.334;20.890;2022-07-06T01:56:58;16.20;99.90
19359;DHT22;9815;52.334;20.890;2022-07-06T01:59:26;16.20;99.90
19359;DHT22;9815;52.334;20.890;2022-07-06T02:01:54;16.20;99.90
19359;DHT22;9815;52.334;20.890;2022-07-06T02:04:23;16.20;99.90
19359;DHT22;9815;52.334;20.890;2022-07-06T02:06:51;16.30;99.90
19359;DHT22;9815;52.334;20.890;2022-07-06T02:09:20;16.30;99.90
19359;DHT22;9815;52.334;20.890;2022-07-06T02:11:48;16.30;99.90
19359;DHT22;9815;52.334;20.890;2022-07-06T02:14:18;16.20;99.90
19359;DHT22;9815;52.334;20.890;2022-07-06T02:16:47;16.20;99.90
19359;DHT22;9815;52.334;20.890;2022-07-06T02:19:17;16.20;99.90
19359;DHT22;9815;52.334;20.890;2022-07-06T02:21:45;16.20;99.90
19359;DHT22;9815;52.334;20.890;2022-07-06T02:24:14;16.20;99.90
19359;DHT22;9815;52.334;20.890;2022-07-06T02:26:43;16.20;99.90
19359;DHT22;9815;52.334;20.890;2022-07-06T02:29:11;16.20;99.90
19359;DHT22;9815;52.334;20.890;2022-07-06T02:31:41;16.20;99.90
19359;DHT22;9815;52.334;20.890;2022-07-06T02:34:10;16.20;99.90
19359;DHT22;9815;52.334;20.890;2022-07-06T02:36:38;16.20;99.90
19359;DHT22;9815;52.334;20.890;2022-07-06T02:39:06;16.20;99.90
19359;DHT22;9815;52.334;20.890;2022-07-06T02:41:34;16.20;99.90
19359;DHT22;9815;52.334;20.890;2022-07-06T02:44:03;16.20;99.90
19359;DHT22;9815;52.334;20.890;2022-07-06T02:46:32;16.10;99.90
19359;DHT22;9815;52.334;20.890;2022-07-06T02:49:02;16.10;99.90
19359;DHT22;9815;52.334;20.890;2022-07-06T02:51:30;16.20;99.90
19359;DHT22;9815;52.334;20.890;2022-07-06T02:53:59;16.20;99.90
19359;DHT22;9815;52.334;20.890;2022-07-06T02:56:28;16.20;99.90
19359;DHT22;9815;52.334;20.890;2022-07-06T02:58:57;16.10;99.90
19359;DHT22;9815;52.334;20.890;2022-07-06T03:01:25;16.10;99.90
19359;DHT22;9815;52.334;20.890;2022-07-06T03:03:54;16.10;99.90
19359;DHT22;9815;52.334;20.890;2022-07-06T03:06:24;16.10;99.90
19359;DHT22;9815;52.334;20.890;2022-07-06T03:08:52;16.10;99.90
19359;DHT22;9815;52.334;20.890;2022-07-06T03:11:20;16.20;99.90
19359;DHT22;9815;52.334;20.890;2022-07-06T03:13:48;16.20;99.90
19359;DHT22;9815;52.334;20.890;2022-07-06T03:16:17;16.20;99.90
19359;DHT22;9815;52.334;20.890;2022-07-06T03:18:45;16.20;99.90
19359;DHT22;9815;52.334;20.890;2022-07-06T03:21:14;16.20;99.90
19359;DHT22;9815;52.334;20.890;2022-07-06T03:23:44;16.20;99.90
19359;DHT22;9815;52.334;20.890;2022-07-06T03:26:12;16.30;99.90
19359;DHT22;9815;52.334;20.890;2022-07-06T03:28:41;16.30;99.90
19359;DHT22;9815;52.334;20.890;2022-07-06T03:31:10;16.30;99.90
19359;DHT22;9815;52.334;20.890;2022-07-06T03:33:39;16.30;99.90
19359;DHT22;9815;52.334;20.890;2022-07-06T03:36:08;16.30;99.90
19359;DHT22;9815;52.334;20.890;2022-07-06T03:38:36;16.40;99.90
19359;DHT22;9815;52.334;20.890;2022-07-06T03:41:07;16.50;99.90
19359;DHT22;9815;52.334;20.890;2022-07-06T03:43:35;16.50;99.90
19359;DHT22;9815;52.334;20.890;2022-07-06T03:46:04;16.50;99.90
19359;DHT22;9815;52.334;20.890;2022-07-06T03:48:33;16.50;99.90
19359;DHT22;9815;52.334;20.890;2022-07-06T03:51:04;16.60;99.90
19359;DHT22;9815;52.334;20.890;2022-07-06T03:53:33;16.60;99.90
19359;DHT22;9815;52.334;20.890;2022-07-06T03:56:01;16.60;99.90
19359;DHT22;9815;52.334;20.890;2022-07-06T03:58:49;16.60;99.90
19359;DHT22;9815;52.334;20.890;2022-07-06T04:01:18;16.60;99.90
19359;DHT22;9815;52.334;20.890;2022-07-06T04:03:46;16.60;99.90
19359;DHT22;9815;52.334;20.890;2022-07-06T04:06:14;16.60;99.90
19359;DHT22;9815;52.334;20.890;2022-07-06T04:08:43;16.60;99.90
19359;DHT22;9815;52.334;20.890;2022-07-06T04:11:11;16.60;99.90
19359;DHT22;9815;52.334;20.890;2022-07-06T04:13:40;16.60;99.90
19359;DHT22;9815;52.334;20.890;2022-07-06T04:16:10;16.60;99.90
19359;DHT22;9815;52.334;20.890;2022-07-06T04:18:38;16.60;99.90
19359;DHT22;9815;52.334;20.890;2022-07-06T04:21:06;16.50;99.90
19359;DHT22;9815;52.334;20.890;2022-07-06T04:23:36;16.50;99.90
19359;DHT22;9815;52.334;20.890;2022-07-06T04:26:06;16.60;99.90
19359;DHT22;9815;52.334;20.890;2022-07-06T04:28:37;16.50;99.90
19359;DHT22;9815;52.334;20.890;2022-07-06T04:31:05;16.50;99.90
19359;DHT22;9815;52.334;20.890;2022-07-06T04:33:36;16.40;99.90
19359;DHT22;9815;52.334;20.890;2022-07-06T04:36:04;16.30;99.90
19359;DHT22;9815;52.334;20.890;2022-07-06T04:38:39;16.40;99.90
19359;DHT22;9815;52.334;20.890;2022-07-06T04:41:10;16.40;99.90
19359;DHT22;9815;52.334;20.890;2022-07-06T04:43:38;16.40;99.90
19359;DHT22;9815;52.334;20.890;2022-07-06T04:46:08;16.30;99.90
19359;DHT22;9815;52.334;20.890;2022-07-06T04:48:41;16.40;99.90
19359;DHT22;9815;52.334;20.890;2022-07-06T04:51:14;16.40;99.90
19359;DHT22;9815;52.334;20.890;2022-07-06T04:53:43;16.50;99.90
19359;DHT22;9815;52.334;20.890;2022-07-06T04:56:12;16.40;99.90
19359;DHT22;9815;52.334;20.890;2022-07-06T04:58:40;16.30;99.90
19359;DHT22;9815;52.334;20.890;2022-07-06T05:01:12;16.30;99.90
19359;DHT22;9815;52.334;20.890;2022-07-06T05:03:43;16.30;99.90
19359;DHT22;9815;52.334;20.890;2022-07-06T05:06:13;16.40;99.90
19359;DHT22;9815;52.334;20.890;2022-07-06T05:08:43;16.30;99.90
19359;DHT22;9815;52.334;20.890;2022-07-06T05:11:11;16.30;99.90
19359;DHT22;9815;52.334;20.890;2022-07-06T05:13:40;16.20;99.90
19359;DHT22;9815;52.334;20.890;2022-07-06T05:16:09;16.20;99.90
19359;DHT22;9815;52.334;20.890;2022-07-06T05:18:37;16.00;99.90
19359;DHT22;9815;52.334;20.890;2022-07-06T05:21:07;15.90;99.90
19359;DHT22;9815;52.334;20.890;2022-07-06T05:23:35;15.90;99.90
19359;DHT22;9815;52.334;20.890;2022-07-06T05:26:04;15.80;99.90
19359;DHT22;9815;52.334;20.890;2022-07-06T05:28:33;15.80;99.90
19359;DHT22;9815;52.334;20.890;2022-07-06T05:31:05;16.00;99.90
19359;DHT22;9815;52.334;20.890;2022-07-06T05:33:34;16.00;99.90
19359;DHT22;9815;52.334;20.890;2022-07-06T05:36:03;16.20;99.90
19359;DHT22;9815;52.334;20.890;2022-07-06T05:38:33;16.30;99.90
19359;DHT22;9815;52.334;20.890;2022-07-06T05:41:02;16.50;99.90
19359;DHT22;9815;52.334;20.890;2022-07-06T05:43:32;16.50;99.90
19359;DHT22;9815;52.334;20.890;2022-07-06T05:46:00;16.40;99.90
19359;DHT22;9815;52.334;20.890;2022-07-06T05:48:30;16.50;99.90
19359;DHT22;9815;52.334;20.890;2022-07-06T05:51:25;16.40;99.90
19359;DHT22;9815;52.334;20.890;2022-07-06T05:53:55;16.60;99.90
19359;DHT22;9815;52.334;20.890;2022-07-06T05:56:24;16.40;99.90
19359;DHT22;9815;52.334;20.890;2022-07-06T05:58:53;16.50;99.90
19359;DHT22;9815;52.334;20.890;2022-07-06T06:01:22;16.30;99.90
19359;DHT22;9815;52.334;20.890;2022-07-06T06:04:00;16.50;99.90
19359;DHT22;9815;52.334;20.890;2022-07-06T06:06:28;16.50;99.90
19359;DHT22;9815;52.334;20.890;2022-07-06T06:08:59;16.60;99.90
19359;DHT22;9815;52.334;20.890;2022-07-06T06:11:28;16.70;99.90
19359;DHT22;9815;52.334;20.890;2022-07-06T06:13:56;16.70;99.90
19359;DHT22;9815;52.334;20.890;2022-07-06T06:16:24;16.70;99.90
19359;DHT22;9815;52.334;20.890;2022-07-06T06:18:52;16.70;99.90
19359;DHT22;9815;52.334;20.890;2022-07-06T06:21:21;16.50;99.90
19359;DHT22;9815;52.334;20.890;2022-07-06T06:23:50;16.60;99.90
19359;DHT22;9815;52.334;20.890;2022-07-06T06:26:20;16.70;99.90
19359;DHT22;9815;52.334;20.890;2022-07-06T06:28:48;16.80;99.90
19359;DHT22;9815;52.334;20.890;2022-07-06T06:31:17;16.90;99.90
19359;DHT22;9815;52.334;20.890;2022-07-06T06:33:45;17.10;99.90
19359;DHT22;9815;52.334;20.890;2022-07-06T06:36:13;17.10;99.90
19359;DHT22;9815;52.334;20.890;2022-07-06T06:38:42;17.40;99.90
19359;DHT22;9815;52.334;20.890;2022-07-06T06:41:10;17.50;99.90
19359;DHT22;9815;52.334;20.890;2022-07-06T06:43:39;17.70;99.90
19359;DHT22;9815;52.334;20.890;2022-07-06T06:46:12;17.80;99.90
19359;DHT22;9815;52.334;20.890;2022-07-06T06:48:41;18.00;99.90
19359;DHT22;9815;52.334;20.890;2022-07-06T06:51:09;18.10;99.90
19359;DHT22;9815;52.334;20.890;2022-07-06T06:53:37;18.10;99.90
19359;DHT22;9815;52.334;20.890;2022-07-06T06:56:06;18.20;99.90
19359;DHT22;9815;52.334;20.890;2022-07-06T06:58:35;18.30;99.90
19359;DHT22;9815;52.334;20.890;2022-07-06T07:01:25;18.30;99.90
19359;DHT22;9815;52.334;20.890;2022-07-06T07:03:54;18.20;99.90
19359;DHT22;9815;52.334;20.890;2022-07-06T07:06:22;18.20;99.90
19359;DHT22;9815;52.334;20.890;2022-07-06T07:08:51;18.20;99.90
19359;DHT22;9815;52.334;20.890;2022-07-06T07:11:19;18.00;99.90
19359;DHT22;9815;52.334;20.890;2022-07-06T07:13:47;17.80;99.90
19359;DHT22;9815;52.334;20.890;2022-07-06T07:16:16;17.80;99.90
19359;DHT22;9815;52.334;20.890;2022-07-06T07:18:45;17.90;99.90
19359;DHT22;9815;52.334;20.890;2022-07-06T07:21:13;17.80;99.90
19359;DHT22;9815;52.334;20.890;2022-07-06T07:23:42;17.70;99.90
19359;DHT22;9815;52.334;20.890;2022-07-06T07:26:10;17.70;99.90
19359;DHT22;9815;52.334;20.890;2022-07-06T07:28:38;17.80;99.90
19359;DHT22;9815;52.334;20.890;2022-07-06T07:31:07;17.90;99.90
19359;DHT22;9815;52.334;20.890;2022-07-06T07:33:35;17.90;99.90
19359;DHT22;9815;52.334;20.890;2022-07-06T07:36:05;17.90;99.90
19359;DHT22;9815;52.334;20.890;2022-07-06T07:38:34;18.10;99.90
19359;DHT22;9815;52.334;20.890;2022-07-06T07:41:02;18.40;99.90
19359;DHT22;9815;52.334;20.890;2022-07-06T07:43:32;19.20;99.90
19359;DHT22;9815;52.334;20.890;2022-07-06T07:46:02;19.80;93.00
19359;DHT22;9815;52.334;20.890;2022-07-06T07:48:30;20.20;81.60
19359;DHT22;9815;52.334;20.890;2022-07-06T07:50:59;20.40;83.30
19359;DHT22;9815;52.334;20.890;2022-07-06T07:53:28;21.00;80.10
19359;DHT22;9815;52.334;20.890;2022-07-06T07:55:57;21.80;73.20
19359;DHT22;9815;52.334;20.890;2022-07-06T07:58:28;20.90;71.40
19359;DHT22;9815;52.334;20.890;2022-07-06T08:00:57;20.80;72.00
19359;DHT22;9815;52.334;20.890;2022-07-06T08:03:25;21.10;72.70
19359;DHT22;9815;52.334;20.890;2022-07-06T08:05:53;21.00;74.80
19359;DHT22;9815;52.334;20.890;2022-07-06T08:08:21;20.60;75.60
19359;DHT22;9815;52.334;20.890;2022-07-06T08:10:52;20.80;73.10
19359;DHT22;9815;52.334;20.890;2022-07-06T08:13:40;20.60;69.60
19359;DHT22;9815;52.334;20.890;2022-07-06T08:16:08;21.50;75.70
19359;DHT22;9815;52.334;20.890;2022-07-06T08:18:37;22.10;63.20
19359;DHT22;9815;52.334;20.890;2022-07-06T08:21:06;22.70;66.60
19359;DHT22;9815;52.334;20.890;2022-07-06T08:23:52;22.80;63.60
19359;DHT22;9815;52.334;20.890;2022-07-06T08:26:22;22.90;64.00
19359;DHT22;9815;52.334;20.890;2022-07-06T08:28:51;22.50;61.80
19359;DHT22;9815;52.334;20.890;2022-07-06T08:31:19;21.80;60.10
19359;DHT22;9815;52.334;20.890;2022-07-06T08:34:08;21.50;61.70
19359;DHT22;9815;52.334;20.890;2022-07-06T08:36:36;21.60;64.60
19359;DHT22;9815;52.334;20.890;2022-07-06T08:39:05;21.40;62.00
19359;DHT22;9815;52.334;20.890;2022-07-06T08:41:36;21.10;64.30
19359;DHT22;9815;52.334;20.890;2022-07-06T08:44:06;21.00;60.30
19359;DHT22;9815;52.334;20.890;2022-07-06T08:46:37;21.60;61.70
19359;DHT22;9815;52.334;20.890;2022-07-06T08:49:06;22.00;59.00
19359;DHT22;9815;52.334;20.890;2022-07-06T08:51:35;22.30;56.00
19359;DHT22;9815;52.334;20.890;2022-07-06T08:54:04;22.00;54.90
19359;DHT22;9815;52.334;20.890;2022-07-06T08:56:32;21.80;54.90
19359;DHT22;9815;52.334;20.890;2022-07-06T08:59:02;21.90;52.90
19359;DHT22;9815;52.334;20.890;2022-07-06T09:01:30;22.50;54.00
19359;DHT22;9815;52.334;20.890;2022-07-06T09:04:00;23.00;54.20
19359;DHT22;9815;52.334;20.890;2022-07-06T09:06:51;23.70;51.10
19359;DHT22;9815;52.334;20.890;2022-07-06T09:09:20;24.40;50.80
19359;DHT22;9815;52.334;20.890;2022-07-06T09:11:50;24.40;47.70
19359;DHT22;9815;52.334;20.890;2022-07-06T09:14:20;23.90;47.60
19359;DHT22;9815;52.334;20.890;2022-07-06T09:16:52;23.60;50.90
19359;DHT22;9815;52.334;20.890;2022-07-06T09:19:28;24.10;51.50
19359;DHT22;9815;52.334;20.890;2022-07-06T09:21:58;24.30;48.30
19359;DHT22;9815;52.334;20.890;2022-07-06T09:24:26;23.60;47.60
19359;DHT22;9815;52.334;20.890;2022-07-06T09:26:55;23.20;48.90
19359;DHT22;9815;52.334;20.890;2022-07-06T09:29:29;23.30;50.50
19359;DHT22;9815;52.334;20.890;2022-07-06T09:31:58;24.10;49.10
19359;DHT22;9815;52.334;20.890;2022-07-06T09:34:40;24.50;45.80
19359;DHT22;9815;52.334;20.890;2022-07-06T09:37:10;25.00;46.80
19359;DHT22;9815;52.334;20.890;2022-07-06T09:39:38;24.90;45.00
19359;DHT22;9815;52.334;20.890;2022-07-06T09:42:07;24.70;45.40
19359;DHT22;9815;52.334;20.890;2022-07-06T09:44:38;24.60;44.20
19359;DHT22;9815;52.334;20.890;2022-07-06T09:47:08;24.50;42.90
19359;DHT22;9815;52.334;20.890;2022-07-06T09:49:37;23.80;43.50
19359;DHT22;9815;52.334;20.890;2022-07-06T09:52:07;23.70;44.60
19359;DHT22;9815;52.334;20.890;2022-07-06T09:54:36;23.90;44.70
19359;DHT22;9815;52.334;20.890;2022-07-06T09:57:06;24.20;45.10
19359;DHT22;9815;52.334;20.890;2022-07-06T09:59:37;24.80;43.70
19359;DHT22;9815;52.334;20.890;2022-07-06T10:02:07;24.20;44.30
19359;DHT22;9815;52.334;20.890;2022-07-06T10:04:36;24.00;44.70
19359;DHT22;9815;52.334;20.890;2022-07-06T10:07:06;24.40;45.10
19359;DHT22;9815;52.334;20.890;2022-07-06T10:09:34;23.90;44.80
19359;DHT22;9815;52.334;20.890;2022-07-06T10:12:04;23.20;45.70
19359;DHT22;9815;52.334;20.890;2022-07-06T10:14:34;23.40;46.40
19359;DHT22;9815;52.334;20.890;2022-07-06T10:17:05;23.80;47.90
19359;DHT22;9815;52.334;20.890;2022-07-06T10:19:34;23.90;45.10
19359;DHT22;9815;52.334;20.890;2022-07-06T10:22:03;24.00;46.60
19359;DHT22;9815;52.334;20.890;2022-07-06T10:24:32;24.20;46.00
19359;DHT22;9815;52.334;20.890;2022-07-06T10:27:07;23.80;42.90
19359;DHT22;9815;52.334;20.890;2022-07-06T10:29:36;23.80;45.70
19359;DHT22;9815;52.334;20.890;2022-07-06T10:32:06;24.40;45.30
19359;DHT22;9815;52.334;20.890;2022-07-06T10:34:35;25.40;43.70
19359;DHT22;9815;52.334;20.890;2022-07-06T10:37:04;25.30;40.20
19359;DHT22;9815;52.334;20.890;2022-07-06T10:39:33;24.80;38.00
19359;DHT22;9815;52.334;20.890;2022-07-06T10:42:41;24.50;40.60
19359;DHT22;9815;52.334;20.890;2022-07-06T10:45:12;24.90;40.10
19359;DHT22;9815;52.334;20.890;2022-07-06T10:47:42;24.60;40.80
19359;DHT22;9815;52.334;20.890;2022-07-06T10:50:11;23.50;42.30
19359;DHT22;9815;52.334;20.890;2022-07-06T10:52:53;23.00;43.30
19359;DHT22;9815;52.334;20.890;2022-07-06T10:55:31;23.00;44.90
19359;DHT22;9815;52.334;20.890;2022-07-06T10:58:00;23.70;46.10
19359;DHT22;9815;52.334;20.890;2022-07-06T11:00:48;24.50;42.50
19359;DHT22;9815;52.334;20.890;2022-07-06T11:03:33;24.30;41.90
19359;DHT22;9815;52.334;20.890;2022-07-06T11:06:05;23.30;43.70
19359;DHT22;9815;52.334;20.890;2022-07-06T11:08:43;23.90;44.30
19359;DHT22;9815;52.334;20.890;2022-07-06T11:11:12;23.90;42.30
19359;DHT22;9815;52.334;20.890;2022-07-06T11:13:48;23.80;41.90
19359;DHT22;9815;52.334;20.890;2022-07-06T11:16:17;23.80;41.60
19359;DHT22;9815;52.334;20.890;2022-07-06T11:18:48;23.30;43.70
19359;DHT22;9815;52.334;20.890;2022-07-06T11:21:22;22.60;45.00
19359;DHT22;9815;52.334;20.890;2022-07-06T11:23:51;22.20;46.30
19359;DHT22;9815;52.334;20.890;2022-07-06T11:26:19;22.20;47.30
19359;DHT22;9815;52.334;20.890;2022-07-06T11:28:51;22.70;46.00
19359;DHT22;9815;52.334;20.890;2022-07-06T11:31:19;23.10;44.80
19359;DHT22;9815;52.334;20.890;2022-07-06T11:33:49;23.10;45.20
19359;DHT22;9815;52.334;20.890;2022-07-06T11:36:18;23.30;45.90
19359;DHT22;9815;52.334;20.890;2022-07-06T11:38:48;23.00;46.40
19359;DHT22;9815;52.334;20.890;2022-07-06T11:41:18;22.70;46.70
19359;DHT22;9815;52.334;20.890;2022-07-06T11:43:47;22.30;46.60
19359;DHT22;9815;52.334;20.890;2022-07-06T11:46:25;21.90;46.40
19359;DHT22;9815;52.334;20.890;2022-07-06T11:48:56;21.80;47.10
19359;DHT22;9815;52.334;20.890;2022-07-06T11:51:27;22.40;47.50
19359;DHT22;9815;52.334;20.890;2022-07-06T11:53:57;23.00;44.80
19359;DHT22;9815;52.334;20.890;2022-07-06T11:56:27;23.90;44.80
19359;DHT22;9815;52.334;20.890;2022-07-06T11:58:56;24.10;41.20
19359;DHT22;9815;52.334;20.890;2022-07-06T12:01:26;24.40;41.60
19359;DHT22;9815;52.334;20.890;2022-07-06T12:04:00;24.70;40.30
19359;DHT22;9815;52.334;20.890;2022-07-06T12:06:28;24.70;41.00
19359;DHT22;9815;52.334;20.890;2022-07-06T12:08:59;24.20;41.20
19359;DHT22;9815;52.334;20.890;2022-07-06T12:11:32;23.60;41.80
19359;DHT22;9815;52.334;20.890;2022-07-06T12:14:02;23.30;44.20
19359;DHT22;9815;52.334;20.890;2022-07-06T12:16:31;22.90;43.80
19359;DHT22;9815;52.334;20.890;2022-07-06T12:19:03;22.90;44.10
19359;DHT22;9815;52.334;20.890;2022-07-06T12:21:33;23.60;43.70
19359;DHT22;9815;52.334;20.890;2022-07-06T12:24:06;24.30;41.80
19359;DHT22;9815;52.334;20.890;2022-07-06T12:26:39;25.10;41.50
19359;DHT22;9815;52.334;20.890;2022-07-06T12:29:10;25.30;41.50
19359;DHT22;9815;52.334;20.890;2022-07-06T12:31:42;25.80;41.10
19359;DHT22;9815;52.334;20.890;2022-07-06T12:34:16;26.00;39.00
19359;DHT22;9815;52.334;20.890;2022-07-06T12:36:45;25.40;40.50
19359;DHT22;9815;52.334;20.890;2022-07-06T12:39:14;24.40;40.20
19359;DHT22;9815;52.334;20.890;2022-07-06T12:41:47;23.90;41.80
19359;DHT22;9815;52.334;20.890;2022-07-06T12:44:17;23.30;43.70
19359;DHT22;9815;52.334;20.890;2022-07-06T12:46:46;23.20;43.40
19359;DHT22;9815;52.334;20.890;2022-07-06T12:49:18;22.90;45.50
19359;DHT22;9815;52.334;20.890;2022-07-06T12:51:58;22.70;44.60
19359;DHT22;9815;52.334;20.890;2022-07-06T12:54:29;22.40;45.10
19359;DHT22;9815;52.334;20.890;2022-07-06T12:57:10;22.40;45.80
19359;DHT22;9815;52.334;20.890;2022-07-06T12:59:42;22.30;45.00
19359;DHT22;9815;52.334;20.890;2022-07-06T13:02:18;22.30;45.70
19359;DHT22;9815;52.334;20.890;2022-07-06T13:05:10;22.40;44.60
19359;DHT22;9815;52.334;20.890;2022-07-06T13:07:44;23.10;45.00
19359;DHT22;9815;52.334;20.890;2022-07-06T13:10:14;23.90;43.70
19359;DHT22;9815;52.334;20.890;2022-07-06T13:12:42;24.60;42.40
19359;DHT22;9815;52.334;20.890;2022-07-06T13:15:12;25.10;41.20
19359;DHT22;9815;52.334;20.890;2022-07-06T13:17:40;24.90;41.70
19359;DHT22;9815;52.334;20.890;2022-07-06T13:20:12;24.50;42.00
19359;DHT22;9815;52.334;20.890;2022-07-06T13:22:40;24.50;42.00
19359;DHT22;9815;52.334;20.890;2022-07-06T13:25:09;24.60;41.20
19359;DHT22;9815;52.334;20.890;2022-07-06T13:27:39;24.20;42.10
19359;DHT22;9815;52.334;20.890;2022-07-06T13:30:08;24.40;43.00
19359;DHT22;9815;52.334;20.890;2022-07-06T13:32:37;24.30;42.90
19359;DHT22;9815;52.334;20.890;2022-07-06T13:35:07;24.10;44.00
19359;DHT22;9815;52.334;20.890;2022-07-06T13:37:37;23.70;43.50
19359;DHT22;9815;52.334;20.890;2022-07-06T13:40:07;23.40;44.80
19359;DHT22;9815;52.334;20.890;2022-07-06T13:42:35;23.00;43.70
19359;DHT22;9815;52.334;20.890;2022-07-06T13:45:04;22.70;44.90
19359;DHT22;9815;52.334;20.890;2022-07-06T13:47:34;22.80;45.70
19359;DHT22;9815;52.334;20.890;2022-07-06T13:50:02;22.70;47.60
19359;DHT22;9815;52.334;20.890;2022-07-06T13:52:30;22.80;46.70
19359;DHT22;9815;52.334;20.890;2022-07-06T13:55:00;23.00;45.70
19359;DHT22;9815;52.334;20.890;2022-07-06T13:57:28;23.10;47.20
19359;DHT22;9815;52.334;20.890;2022-07-06T13:59:57;22.90;46.10
19359;DHT22;9815;52.334;20.890;2022-07-06T14:02:25;22.70;45.60
19359;DHT22;9815;52.334;20.890;2022-07-06T14:04:53;22.40;45.90
19359;DHT22;9815;52.334;20.890;2022-07-06T14:07:22;22.20;47.40
19359;DHT22;9815;52.334;20.890;2022-07-06T14:09:50;22.10;48.60
19359;DHT22;9815;52.334;20.890;2022-07-06T14:12:20;22.20;50.20
19359;DHT22;9815;52.334;20.890;2022-07-06T14:14:50;22.20;49.90
19359;DHT22;9815;52.334;20.890;2022-07-06T14:17:18;22.10;49.10
19359;DHT22;9815;52.334;20.890;2022-07-06T14:19:48;22.00;49.80
19359;DHT22;9815;52.334;20.890;2022-07-06T14:22:16;22.10;49.00
19359;DHT22;9815;52.334;20.890;2022-07-06T14:24:44;22.00;50.20
19359;DHT22;9815;52.334;20.890;2022-07-06T14:27:13;22.10;49.30
19359;DHT22;9815;52.334;20.890;2022-07-06T14:29:42;22.00;48.50
19359;DHT22;9815;52.334;20.890;2022-07-06T14:32:11;22.10;48.70
19359;DHT22;9815;52.334;20.890;2022-07-06T14:34:39;21.90;48.10
19359;DHT22;9815;52.334;20.890;2022-07-06T14:37:08;21.90;47.80
19359;DHT22;9815;52.334;20.890;2022-07-06T14:39:41;21.90;47.40
19359;DHT22;9815;52.334;20.890;2022-07-06T14:42:09;21.80;48.30
19359;DHT22;9815;52.334;20.890;2022-07-06T14:44:37;21.60;48.40
19359;DHT22;9815;52.334;20.890;2022-07-06T14:47:07;21.50;47.80
19359;DHT22;9815;52.334;20.890;2022-07-06T14:49:35;21.50;49.10
19359;DHT22;9815;52.334;20.890;2022-07-06T14:52:05;21.40;48.30
19359;DHT22;9815;52.334;20.890;2022-07-06T14:54:33;21.30;48.60
19359;DHT22;9815;52.334;20.890;2022-07-06T14:57:01;21.40;50.10
19359;DHT22;9815;52.334;20.890;2022-07-06T14:59:31;21.30;48.80
19359;DHT22;9815;52.334;20.890;2022-07-06T15:01:59;21.30;49.40
19359;DHT22;9815;52.334;20.890;2022-07-06T15:04:29;21.20;49.70
19359;DHT22;9815;52.334;20.890;2022-07-06T15:06:57;21.10;48.80
19359;DHT22;9815;52.334;20.890;2022-07-06T15:09:25;21.20;49.60
19359;DHT22;9815;52.334;20.890;2022-07-06T15:11:55;21.10;49.90
19359;DHT22;9815;52.334;20.890;2022-07-06T15:14:23;20.90;50.60
19359;DHT22;9815;52.334;20.890;2022-07-06T15:16:52;20.80;50.90
19359;DHT22;9815;52.334;20.890;2022-07-06T15:19:20;20.70;52.70
19359;DHT22;9815;52.334;20.890;2022-07-06T15:21:50;20.60;54.20
19359;DHT22;9815;52.334;20.890;2022-07-06T15:24:18;20.20;53.00
19359;DHT22;9815;52.334;20.890;2022-07-06T15:26:47;20.10;54.40
19359;DHT22;9815;52.334;20.890;2022-07-06T15:29:15;19.80;54.80
19359;DHT22;9815;52.334;20.890;2022-07-06T15:31:43;19.70;56.00
19359;DHT22;9815;52.334;20.890;2022-07-06T15:34:12;19.60;57.70
19359;DHT22;9815;52.334;20.890;2022-07-06T15:36:40;19.50;57.40
19359;DHT22;9815;52.334;20.890;2022-07-06T15:39:10;19.50;58.70
19359;DHT22;9815;52.334;20.890;2022-07-06T15:41:38;19.50;60.00
19359;DHT22;9815;52.334;20.890;2022-07-06T15:44:06;19.40;58.50
19359;DHT22;9815;52.334;20.890;2022-07-06T15:46:34;19.30;60.20